createdAt,value
2023-04-13T00:02:41.780Z,100.00
2023-04-13T00:08:45.072Z,100.00
2023-04-13T00:14:50.735Z,100.00
2023-04-13T00:20:52.654Z,100.00
2023-04-13T00:26:54.607Z,100.00
2023-04-13T00:32:56.627Z,100.00
2023-04-13T00:38:58.885Z,100.00
2023-04-13T00:45:00.772Z,100.00
2023-04-13T00:51:03.811Z,100.00
2023-04-13T00:57:06.814Z,100.00
2023-04-13T01:03:09.794Z,100.00
2023-04-13T01:09:20.085Z,100.00
2023-04-13T01:15:23.223Z,100.00
2023-04-13T01:21:29.152Z,100.00
2023-04-13T01:27:52.738Z,100.00
2023-04-13T01:33:54.710Z,100.00
2023-04-13T01:39:56.571Z,100.00
2023-04-13T01:46:13.936Z,100.00
2023-04-13T01:52:17.750Z,100.00
2023-04-13T01:58:20.612Z,100.00
2023-04-13T02:04:23.411Z,100.00
2023-04-13T02:10:26.513Z,100.00
2023-04-13T02:16:28.550Z,100.00
2023-04-13T02:22:30.437Z,100.00
2023-04-13T02:28:33.058Z,100.00
2023-04-13T02:34:35.526Z,100.00
2023-04-13T02:40:38.769Z,100.00
2023-04-13T02:46:40.880Z,100.00
2023-04-13T02:52:43.836Z,100.00
2023-04-13T02:58:45.919Z,100.00
2023-04-13T03:04:48.826Z,100.00
2023-04-13T03:10:52.328Z,100.00
2023-04-13T03:16:54.573Z,100.00
2023-04-13T03:22:58.504Z,100.00
2023-04-13T03:29:00.408Z,100.00
2023-04-13T03:35:02.336Z,100.00
2023-04-13T03:41:04.523Z,100.00
2023-04-13T03:47:09.523Z,100.00
2023-04-13T03:53:11.388Z,100.00
2023-04-13T03:59:13.268Z,100.00
2023-04-13T04:05:16.425Z,100.00
2023-04-13T04:11:18.537Z,99.33
2023-04-13T04:17:20.999Z,98.90
2023-04-13T04:23:23.238Z,99.06
2023-04-13T04:29:34.563Z,97.27
2023-04-13T04:35:43.193Z,97.02
2023-04-13T04:41:45.115Z,97.32
2023-04-13T04:47:49.988Z,95.74
2023-04-13T04:53:53.123Z,96.61
2023-04-13T04:59:55.143Z,96.84
2023-04-13T05:05:57.023Z,96.44
2023-04-13T05:11:58.917Z,94.68
2023-04-13T05:18:00.838Z,94.58
2023-04-13T05:24:02.819Z,94.41
2023-04-13T05:30:06.188Z,92.89
2023-04-13T05:36:08.634Z,93.96
2023-04-13T05:42:10.856Z,90.53
2023-04-13T05:48:13.141Z,88.82
2023-04-13T05:54:15.071Z,88.39
2023-04-13T06:00:19.418Z,86.18
2023-04-13T06:06:21.496Z,85.13
2023-04-13T06:12:23.985Z,86.50
2023-04-13T06:18:29.140Z,85.07
2023-04-13T06:24:31.019Z,85.13
2023-04-13T06:30:33.259Z,83.28
2023-04-13T06:36:35.741Z,81.60
2023-04-13T06:42:38.359Z,80.96
2023-04-13T06:48:40.518Z,80.15
2023-04-13T06:54:42.417Z,80.41
2023-04-13T07:00:44.426Z,78.94
2023-04-13T07:06:46.981Z,79.67
2023-04-13T07:12:48.960Z,78.57
2023-04-13T07:18:50.885Z,77.09
2023-04-13T07:24:52.760Z,77.66
2023-04-13T07:30:54.689Z,77.49
2023-04-13T07:36:56.880Z,78.60
2023-04-13T07:42:58.805Z,77.83
2023-04-13T07:49:01.017Z,77.61
2023-04-13T07:55:03.606Z,76.67
2023-04-13T08:01:06.465Z,74.75
2023-04-13T08:07:08.404Z,74.42
2023-04-13T08:13:10.332Z,72.46
2023-04-13T08:19:13.273Z,72.32
2023-04-13T08:25:15.598Z,67.95
2023-04-13T08:31:17.591Z,66.89
2023-04-13T08:37:20.863Z,65.63
2023-04-13T08:43:22.814Z,65.17
2023-04-13T08:49:25.987Z,62.96
2023-04-13T08:55:29.391Z,65.44
2023-04-13T09:01:36.360Z,65.98
2023-04-13T09:07:38.798Z,65.06
2023-04-13T09:13:41.371Z,64.05
2023-04-13T09:19:43.246Z,71.62
2023-04-13T09:25:47.217Z,68.22
2023-04-13T09:31:49.268Z,67.54
2023-04-13T09:37:55.994Z,67.64
2023-04-13T09:44:20.752Z,64.48
2023-04-13T09:50:28.859Z,63.19
2023-04-13T09:56:31.957Z,67.35
2023-04-13T10:02:34.147Z,66.69
2023-04-13T10:08:41.963Z,58.12
2023-04-13T10:14:48.736Z,59.26
2023-04-13T10:20:52.553Z,64.14
2023-04-13T10:26:56.239Z,66.88
2023-04-13T10:33:09.881Z,58.26
2023-04-13T10:39:12.054Z,54.92
2023-04-13T10:45:18.089Z,47.83
2023-04-13T10:51:20.199Z,51.42
2023-04-13T10:57:22.157Z,54.34
2023-04-13T11:03:28.708Z,52.15
2023-04-13T11:09:31.716Z,57.97
2023-04-13T11:15:34.173Z,63.12
2023-04-13T11:21:36.050Z,68.20
2023-04-13T11:27:38.288Z,73.30
2023-04-13T11:33:41.028Z,76.99
2023-04-13T11:39:46.383Z,80.74
2023-04-13T11:45:48.998Z,79.40
2023-04-13T11:51:51.585Z,79.78
2023-04-13T11:57:54.516Z,64.69
2023-04-13T12:04:14.753Z,50.48
2023-04-13T12:10:39.269Z,52.11
2023-04-13T12:17:03.994Z,50.65
2023-04-13T12:23:24.845Z,55.98
2023-04-13T12:29:27.122Z,58.21
2023-04-13T12:35:29.035Z,43.79
2023-04-13T12:41:32.331Z,39.35
2023-04-13T12:47:34.454Z,39.56
2023-04-13T12:53:36.464Z,42.42
2023-04-13T12:59:38.572Z,46.65
2023-04-13T13:05:40.627Z,46.57
2023-04-13T13:11:42.529Z,49.97
2023-04-13T13:17:44.536Z,50.89
2023-04-13T13:23:46.558Z,41.20
2023-04-13T13:29:48.544Z,40.55
2023-04-13T13:35:50.441Z,48.82
2023-04-13T13:41:52.338Z,48.37
2023-04-13T13:47:58.382Z,42.14
2023-04-13T13:54:00.374Z,36.59
2023-04-13T14:00:05.097Z,32.79
2023-04-13T14:06:07.814Z,32.27
2023-04-13T14:12:09.910Z,35.60
2023-04-13T14:18:12.102Z,37.43
2023-04-13T14:24:14.149Z,38.17
2023-04-13T14:30:17.670Z,38.40
2023-04-13T14:36:19.581Z,31.43
2023-04-13T14:42:22.422Z,33.19
2023-04-13T14:48:24.772Z,37.50
2023-04-13T14:54:26.699Z,39.54
2023-04-13T15:00:41.316Z,41.14
2023-04-13T15:06:43.779Z,46.08
2023-04-13T15:12:45.877Z,47.06
2023-04-13T15:18:47.784Z,49.45
2023-04-13T15:24:49.748Z,51.60
2023-04-13T15:30:54.577Z,53.65
2023-04-13T15:36:57.059Z,63.30
2023-04-13T15:42:59.049Z,71.37
2023-04-13T15:49:01.314Z,73.19
2023-04-13T15:55:03.739Z,78.35
2023-04-13T16:01:09.377Z,78.37
2023-04-13T16:07:14.344Z,80.37
2023-04-13T16:13:19.736Z,78.42
2023-04-13T16:19:21.681Z,80.03
2023-04-13T16:25:23.867Z,80.43
2023-04-13T16:31:26.153Z,80.85
2023-04-13T16:37:28.049Z,83.94
2023-04-13T16:43:29.948Z,87.21
2023-04-13T16:49:32.498Z,90.69
2023-04-13T16:55:34.388Z,92.82
2023-04-13T17:01:39.106Z,87.32
2023-04-13T17:07:44.503Z,89.55
2023-04-13T17:13:46.857Z,90.69
2023-04-13T17:19:51.286Z,90.44
2023-04-13T17:25:53.904Z,91.40
2023-04-13T17:31:56.565Z,91.47
2023-04-13T17:37:58.465Z,92.10
2023-04-13T17:44:01.519Z,92.40
2023-04-13T17:50:03.575Z,92.61
2023-04-13T17:56:05.885Z,91.49
2023-04-13T18:02:07.858Z,91.92
2023-04-13T18:08:09.805Z,92.77
2023-04-13T18:14:13.114Z,92.95
2023-04-13T18:20:15.014Z,92.84
2023-04-13T18:26:17.213Z,93.78
2023-04-13T18:32:19.171Z,94.65
2023-04-13T18:38:21.491Z,94.67
2023-04-13T18:44:23.584Z,94.50
2023-04-13T18:50:26.679Z,94.84
2023-04-13T18:56:28.611Z,94.95
2023-04-13T19:02:30.731Z,95.17
2023-04-13T19:08:32.939Z,96.04
2023-04-13T19:14:34.879Z,95.30
2023-04-13T19:20:36.774Z,95.77
2023-04-13T19:26:42.826Z,95.48
2023-04-13T19:32:46.841Z,95.51
2023-04-13T19:38:48.918Z,95.75
2023-04-13T19:44:51.629Z,96.25
2023-04-13T19:50:53.572Z,97.22
2023-04-13T19:56:55.688Z,98.50
2023-04-13T20:03:03.051Z,98.38
2023-04-13T20:09:14.390Z,99.05
2023-04-13T20:15:17.577Z,99.70
2023-04-13T20:21:19.484Z,99.34
2023-04-13T20:27:22.632Z,100.00
2023-04-13T20:33:24.615Z,100.00
2023-04-13T20:39:30.162Z,100.00
2023-04-13T20:45:32.204Z,99.57
2023-04-13T20:51:34.214Z,100.00
2023-04-13T20:57:41.684Z,100.00
2023-04-13T21:03:43.793Z,100.00
2023-04-13T21:09:46.164Z,99.71
2023-04-13T21:15:48.121Z,99.48
2023-04-13T21:21:50.005Z,99.57
2023-04-13T21:27:52.028Z,99.93
2023-04-13T21:33:55.246Z,99.36
2023-04-13T21:39:57.813Z,99.57
2023-04-13T21:45:59.786Z,99.14
2023-04-13T21:52:01.771Z,98.77
2023-04-13T21:58:03.717Z,99.03
2023-04-13T22:04:06.261Z,98.98
2023-04-13T22:10:08.826Z,99.13
2023-04-13T22:16:10.894Z,99.00
2023-04-13T22:22:12.813Z,98.38
2023-04-13T22:28:14.695Z,98.31
2023-04-13T22:34:16.640Z,98.65
2023-04-13T22:40:18.755Z,98.10
2023-04-13T22:46:20.841Z,97.56
2023-04-13T22:52:22.782Z,97.55
2023-04-13T22:58:24.762Z,98.04
2023-04-13T23:04:26.865Z,97.90
2023-04-13T23:10:31.503Z,97.64
2023-04-13T23:16:34.542Z,98.48
2023-04-13T23:22:37.269Z,98.15
2023-04-13T23:28:39.228Z,98.24
2023-04-13T23:34:41.242Z,98.51
2023-04-13T23:40:43.177Z,99.15
2023-04-13T23:46:45.564Z,99.13
2023-04-13T23:52:47.487Z,99.25
2023-04-13T23:58:49.418Z,100.00
